Time;durP1;ratioP1;P1;durP2;ratioP2;P2;SDS_P1;SDS_P2;PMS_P1;PMS_P2;Temp;Humidity;BMP_temperature;BMP_pressure;BME280_temperature;BME280_humidity;BME280_pressure;Samples;Min_cycle;Max_cycle;Signal;HPM_P1;HPM_P2
2020/12/04 00:01:11;;;;;;;4.63;2.53;;;;;;;-2.57;84.71;101211.51;1802243;79;20986;-68
2020/12/04 00:03:38;;;;;;;4.87;3.07;;;;;;;-2.57;84.71;101204.03;1802280;79;21200;-67
2020/12/04 00:06:07;;;;;;;3.03;2.53;;;;;;;-2.57;84.72;101208.86;1802319;79;20998;-67
2020/12/04 00:08:36;;;;;;;5.50;2.30;;;;;;;-2.57;84.73;101210.66;1802393;79;21018;-66
2020/12/04 00:11:04;;;;;;;4.37;2.70;;;;;;;-2.58;84.72;101208.48;1802307;79;21053;-67
2020/12/04 00:13:31;;;;;;;4.20;3.00;;;;;;;-2.59;84.72;101208.06;1771530;79;21018;-67
2020/12/04 00:16:00;;;;;;;4.23;2.20;;;;;;;-2.59;84.72;101211.18;1802383;79;21836;-68
2020/12/04 00:18:28;;;;;;;3.23;2.20;;;;;;;-2.58;84.73;101219.07;1802252;79;20963;-67
2020/12/04 00:20:56;;;;;;;6.27;3.50;;;;;;;-2.56;84.75;101217.69;1802072;79;20990;-66
2020/12/04 00:23:25;;;;;;;4.33;2.57;;;;;;;-2.54;84.78;101226.44;1802379;79;21026;-67
2020/12/04 00:25:52;;;;;;;2.60;2.40;;;;;;;-2.53;84.79;101223.73;1802334;79;21018;-67
2020/12/04 00:28:20;;;;;;;5.20;3.93;;;;;;;-2.52;84.83;101220.61;1802276;79;21210;-66
2020/12/04 00:30:48;;;;;;;5.40;3.13;;;;;;;-2.50;84.83;101222.30;1802295;79;20970;-67
2020/12/04 00:33:16;;;;;;;3.37;3.07;;;;;;;-2.52;84.83;101215.31;1783778;79;21032;-67
2020/12/04 00:35:44;;;;;;;5.70;3.33;;;;;;;-2.52;84.81;101221.47;1770962;81;21097;-66
2020/12/04 00:38:12;;;;;;;5.87;3.07;;;;;;;-2.53;84.80;101222.88;1770944;81;21432;-67
2020/12/04 00:40:40;;;;;;;6.13;4.20;;;;;;;-2.55;84.83;101224.26;1739273;82;21377;-67
2020/12/04 00:43:08;;;;;;;3.03;2.73;;;;;;;-2.55;84.84;101220.72;1764696;81;21032;-67
2020/12/04 00:45:36;;;;;;;6.17;3.90;;;;;;;-2.57;84.85;101228.72;1770990;81;21037;-67
2020/12/04 00:48:03;;;;;;;3.77;2.20;;;;;;;-2.54;84.89;101223.32;1770885;81;21002;-67
2020/12/04 00:50:32;;;;;;;4.30;2.77;;;;;;;-2.54;84.90;101225.11;1738661;82;21136;-67
2020/12/04 00:53:01;;;;;;;4.47;2.57;;;;;;;-2.55;84.90;101217.64;1768530;81;21228;-68
2020/12/04 00:55:29;;;;;;;3.27;2.60;;;;;;;-2.54;84.91;101210.08;1778333;78;21000;-67
2020/12/04 00:57:57;;;;;;;5.83;3.60;;;;;;;-2.51;84.97;101206.47;1800415;79;20945;-67
2020/12/04 01:00:26;;;;;;;3.33;2.80;;;;;;;-2.50;84.99;101210.38;1824868;78;20990;-66
2020/12/04 01:02:54;;;;;;;4.83;2.97;;;;;;;-2.51;85.00;101209.97;1800319;79;21000;-66
2020/12/04 01:05:21;;;;;;;3.03;2.73;;;;;;;-2.51;84.98;101205.14;1824995;78;21206;-68
2020/12/04 01:07:49;;;;;;;1.73;1.63;;;;;;;-2.51;84.99;101203.34;1800165;79;21016;-67
2020/12/04 01:10:17;;;;;;;6.97;3.40;;;;;;;-2.50;84.97;101205.52;1824889;78;20938;-66
2020/12/04 01:12:46;;;;;;;5.93;3.57;;;;;;;-2.50;84.98;101199.79;1800338;79;20941;-66
2020/12/04 01:15:14;;;;;;;5.57;3.67;;;;;;;-2.50;85.01;101194.49;1824834;78;20993;-67
2020/12/04 01:17:42;;;;;;;6.93;3.23;;;;;;;-2.51;85.02;101195.41;1800313;79;21377;-67
2020/12/04 01:20:10;;;;;;;4.37;2.93;;;;;;;-2.50;85.02;101190.95;1824871;78;20949;-67
2020/12/04 01:22:38;;;;;;;4.23;2.53;;;;;;;-2.49;85.06;101198.84;1800275;79;20984;-68
2020/12/04 01:25:07;;;;;;;3.00;2.07;;;;;;;-2.48;85.07;101199.70;1824962;78;21052;-66
2020/12/04 01:27:36;;;;;;;3.30;2.73;;;;;;;-2.47;85.10;101190.84;1800409;79;21001;-67
2020/12/04 01:30:04;;;;;;;5.27;3.13;;;;;;;-2.47;85.07;101191.31;1824922;78;21208;-66
2020/12/04 01:32:32;;;;;;;2.77;2.50;;;;;;;-2.49;85.09;101194.88;1797990;79;20950;-67
2020/12/04 01:34:59;;;;;;;4.17;2.37;;;;;;;-2.47;85.07;101192.64;1806394;79;21001;-67
2020/12/04 01:37:27;;;;;;;5.13;3.23;;;;;;;-2.46;85.08;101195.23;1756749;81;20926;-66
2020/12/04 01:39:55;;;;;;;3.27;2.93;;;;;;;-2.47;85.07;101194.82;1776711;80;20990;-66
2020/12/04 01:42:23;;;;;;;5.53;2.53;;;;;;;-2.46;85.05;101198.32;1756912;81;21386;-67
2020/12/04 01:44:51;;;;;;;3.97;3.27;;;;;;;-2.47;85.06;101191.31;1776642;80;20946;-67
2020/12/04 01:47:19;;;;;;;5.37;2.90;;;;;;;-2.47;85.05;101197.47;1776613;80;21010;-67
2020/12/04 01:49:47;;;;;;;4.43;2.77;;;;;;;-2.47;85.06;101193.50;1776643;80;21025;-67
2020/12/04 01:52:15;;;;;;;5.77;3.93;;;;;;;-2.47;85.09;101192.17;1756688;81;21025;-68
2020/12/04 01:54:46;;;;;;;3.23;2.77;;;;;;;-2.46;85.09;101188.61;1746638;80;21335;-67
2020/12/04 01:57:16;;;;;;;2.80;2.60;;;;;;;-2.47;85.08;101187.34;1764173;81;21014;-67
2020/12/04 01:59:45;;;;;;;3.17;2.33;;;;;;;-2.49;85.09;101186.92;1726147;82;21013;-67
2020/12/04 02:02:21;;;;;;;4.93;2.57;;;;;;;-2.46;85.10;101195.67;1755731;81;21084;-66
2020/12/04 02:04:49;;;;;;;8.57;3.70;;;;;;;-2.45;85.14;101196.94;1791137;80;21056;-67
2020/12/04 02:08:13;;;;;;;5.57;3.23;;;;;;;-2.43;85.14;101196.42;1765578;80;22114;-66
2020/12/04 02:10:48;;;;;;;;;;;;;;;-2.45;85.09;101192.97;1793804;80;20985;-67
2020/12/04 02:13:23;;;;;;;2.77;2.57;;;;;;;-2.42;85.10;101178.76;1889918;76;24424;-66
2020/12/04 02:15:50;;;;;;;5.00;2.60;;;;;;;-2.47;85.12;101186.02;1855580;77;20979;-66
2020/12/04 02:18:18;;;;;;;2.90;2.60;;;;;;;-2.47;85.14;101191.31;1824833;77;21390;-66
2020/12/04 02:20:58;;;;;;;3.27;2.87;;;;;;;-2.47;85.14;101187.34;1827935;77;21033;-66
2020/12/04 02:23:26;;;;;;;4.17;2.60;;;;;;;-2.47;85.18;101192.64;1859206;77;20994;-67
2020/12/04 02:25:56;;;;;;;3.17;2.53;;;;;;;-2.46;85.21;101189.94;1860772;77;21001;-67
2020/12/04 02:28:35;;;;;;;3.20;2.20;;;;;;;-2.43;85.24;101189.80;1860799;77;20931;-67
2020/12/04 02:31:04;;;;;;;2.57;2.37;;;;;;;-2.43;85.25;101189.80;1860843;77;21186;-66
2020/12/04 02:33:33;;;;;;;3.53;2.77;;;;;;;-2.43;85.25;101191.12;1870887;76;21036;-67
2020/12/04 02:36:04;;;;;;;4.03;2.60;;;;;;;-2.43;85.23;101190.27;1790659;80;21001;-67
2020/12/04 02:38:32;;;;;;;2.83;2.00;;;;;;;-2.43;85.24;101188.47;1813480;79;21179;-66
2020/12/04 02:41:01;;;;;;;2.90;2.57;;;;;;;-2.42;85.25;101184.06;1790041;80;20957;-67
2020/12/04 02:43:29;;;;;;;4.37;3.60;;;;;;;-2.43;85.24;101181.84;1813570;79;21911;-67
2020/12/04 02:45:56;;;;;;;4.33;2.23;;;;;;;-2.44;85.19;101177.49;1790074;80;22061;-66
2020/12/04 02:48:24;;;;;;;4.87;3.03;;;;;;;-2.44;85.18;101166.02;1813501;79;20983;-66
2020/12/04 02:50:52;;;;;;;4.07;2.97;;;;;;;-2.46;85.17;101164.77;1790171;80;21985;-67
2020/12/04 02:53:20;;;;;;;4.40;3.17;;;;;;;-2.46;85.17;101165.22;1813638;79;21035;-67
2020/12/04 02:55:48;;;;;;;3.50;2.83;;;;;;;-2.47;85.18;101175.42;1782651;80;21202;-67
2020/12/04 02:58:16;;;;;;;3.37;2.83;;;;;;;-2.49;85.19;101177.66;1779652;80;20994;-68
2020/12/04 03:00:44;;;;;;;5.13;2.63;;;;;;;-2.46;85.24;101178.02;1764823;81;21040;-66
2020/12/04 03:03:13;;;;;;;3.40;2.20;;;;;;;-2.45;85.27;101167.80;1779778;80;21077;-66
2020/12/04 03:05:41;;;;;;;4.17;3.03;;;;;;;-2.45;85.32;101173.58;1764815;81;20906;-67
2020/12/04 03:08:09;;;;;;;5.17;3.03;;;;;;;-2.45;85.31;101166.95;1779934;80;21208;-66
2020/12/04 03:10:37;;;;;;;3.73;2.97;;;;;;;-2.45;85.31;101164.30;1764666;81;21036;-67
2020/12/04 03:13:05;;;;;;;5.10;2.53;;;;;;;-2.45;85.33;101162.98;1784229;80;21037;-67
2020/12/04 03:15:33;;;;;;;3.93;3.13;;;;;;;-2.45;85.35;101174.90;1762846;81;20969;-67
2020/12/04 03:18:01;;;;;;;3.33;2.63;;;;;;;-2.44;85.38;101172.63;1785723;80;21027;-67
2020/12/04 03:20:29;;;;;;;2.83;2.53;;;;;;;-2.45;85.41;101167.80;1762839;81;21214;-67
2020/12/04 03:22:57;;;;;;;3.40;1.87;;;;;;;-2.43;85.42;101170.40;1787907;78;20969;-67
2020/12/04 03:25:25;;;;;;;3.57;3.07;;;;;;;-2.41;85.46;101174.70;1795549;79;21068;-67
2020/12/04 03:27:53;;;;;;;5.60;3.03;;;;;;;-2.40;85.46;101168.96;1828287;78;20913;-66
2020/12/04 03:30:21;;;;;;;5.10;3.37;;;;;;;-2.40;85.46;101165.84;1793894;80;21040;-66
2020/12/04 03:32:48;;;;;;;6.10;2.93;;;;;;;-2.41;85.47;101169.88;1798619;79;21556;-66
2020/12/04 03:35:16;;;;;;;7.30;4.13;;;;;;;-2.42;85.48;101169.48;1795343;80;21022;-67
2020/12/04 03:37:44;;;;;;;8.07;4.73;;;;;;;-2.42;85.48;101166.38;1795225;78;21094;-67
2020/12/04 03:40:11;;;;;;;2.93;2.63;;;;;;;-2.42;85.49;101170.81;1795386;80;21054;-66
2020/12/04 03:42:39;;;;;;;6.43;3.50;;;;;;;-2.43;85.50;101172.58;1784734;80;20997;-67
2020/12/04 03:45:07;;;;;;;3.30;2.50;;;;;;;-2.42;85.52;101172.98;1782763;80;21186;-67
2020/12/04 03:47:37;;;;;;;8.47;5.40;;;;;;;-2.41;85.51;101175.17;1782724;80;21290;-66
2020/12/04 03:50:06;;;;;;;7.73;5.03;;;;;;;-2.40;85.52;101181.73;1782810;80;21013;-66
2020/12/04 03:52:34;;;;;;;6.60;4.03;;;;;;;-2.38;85.54;101172.41;1778356;80;21012;-67
2020/12/04 03:55:02;;;;;;;6.17;4.00;;;;;;;-2.37;85.53;101174.15;1777510;80;20996;-68
2020/12/04 03:57:29;;;;;;;5.37;3.03;;;;;;;-2.36;85.54;101173.20;1762978;80;21200;-67
2020/12/04 03:59:57;;;;;;;3.83;3.17;;;;;;;-2.37;85.51;101177.66;1785451;80;21037;-67
2020/12/04 04:02:26;;;;;;;3.03;2.73;;;;;;;-2.35;85.52;101181.57;1785609;80;21061;-67
2020/12/04 04:04:53;;;;;;;4.37;2.30;;;;;;;-2.35;85.53;101177.13;1762720;81;20957;-66
2020/12/04 04:07:23;;;;;;;2.90;1.93;;;;;;;-2.35;85.50;101165.67;1785457;80;20993;-67
2020/12/04 04:09:51;;;;;;;4.30;2.17;;;;;;;-2.34;85.47;101179.30;1762898;81;21334;-67
2020/12/04 04:12:19;;;;;;;4.03;2.60;;;;;;;-2.34;85.47;101182.84;1783351;80;20997;-68
2020/12/04 04:14:46;;;;;;;5.80;3.10;;;;;;;-2.33;85.46;101183.69;1764669;81;21064;-68
2020/12/04 04:17:14;;;;;;;3.93;2.27;;;;;;;-2.34;85.42;101180.19;1779758;80;20919;-67
2020/12/04 04:19:42;;;;;;;3.03;2.10;;;;;;;-2.35;85.39;101167.85;1764656;81;20953;-67
2020/12/04 04:22:09;;;;;;;3.60;2.50;;;;;;;-2.36;85.35;101158.63;1803576;79;21383;-68
2020/12/04 04:24:38;;;;;;;3.20;2.80;;;;;;;-2.37;85.33;101159.58;1816566;79;20950;-66
2020/12/04 04:27:05;;;;;;;3.37;2.43;;;;;;;-2.40;85.31;101168.96;1803447;79;21016;-67
2020/12/04 04:29:33;;;;;;;4.20;3.17;;;;;;;-2.40;85.31;101153.92;1828429;78;20977;-67
2020/12/04 04:32:01;;;;;;;3.50;2.07;;;;;;;-2.40;85.31;101161.02;1802792;79;21056;-67
2020/12/04 04:34:29;;;;;;;5.27;3.33;;;;;;;-2.40;85.29;101158.37;1819369;78;21207;-68
2020/12/04 04:36:57;;;;;;;3.37;2.47;;;;;;;-2.41;85.25;101182.64;1819438;78;20954;-67
2020/12/04 04:39:25;;;;;;;3.30;2.67;;;;;;;-2.42;85.25;101181.41;1819433;78;21002;-67
2020/12/04 04:41:55;;;;;;;6.40;3.57;;;;;;;-2.41;85.23;101183.12;1795746;79;21554;-67
2020/12/04 04:44:23;;;;;;;3.37;2.07;;;;;;;-2.40;85.24;101180.41;1819372;78;20973;-67
2020/12/04 04:47:06;;;;;;;5.13;2.47;;;;;;;-2.41;85.20;101172.52;1795833;80;21387;-67
2020/12/04 04:49:44;;;;;;;4.30;2.70;;;;;;;-2.40;85.21;101170.28;1819423;78;20981;-67
2020/12/04 04:52:12;;;;;;;7.10;4.10;;;;;;;-2.39;85.20;101181.27;1722306;83;21030;-67
2020/12/04 04:54:47;;;;;;;4.00;3.17;;;;;;;-2.41;85.17;101181.79;1722318;83;20979;-67
2020/12/04 04:57:23;;;;;;;3.60;2.40;;;;;;;-2.40;85.14;101171.14;1903668;75;22738;-67
2020/12/04 04:59:54;;;;;;;2.83;2.33;;;;;;;-2.42;85.15;101178.76;1790713;80;20901;-67
2020/12/04 05:02:22;;;;;;;5.10;2.73;;;;;;;-2.43;85.17;101175.22;1811530;79;21354;-67
2020/12/04 05:04:55;;;;;;;5.97;3.07;;;;;;;-2.42;85.17;101178.76;1811425;79;21037;-67
2020/12/04 05:07:29;;;;;;;3.63;2.87;;;;;;;-2.42;85.19;101187.56;1669781;84;20979;-68
2020/12/04 05:10:12;;;;;;;6.50;3.27;;;;;;;-2.43;85.17;101189.80;1716470;83;21032;-67
2020/12/04 05:12:41;;;;;;;7.05;2.67;;;;;;;-2.42;85.16;101190.68;1670000;86;21025;-68
2020/12/04 05:15:26;;;;;;;3.50;2.80;;;;;;;-2.44;85.14;101193.39;1716553;80;21380;-67
2020/12/04 05:18:05;;;;;;;2.83;2.63;;;;;;;-2.45;85.11;101193.44;1669714;84;21216;-68
2020/12/04 05:20:47;;;;;;;16.40;6.47;;;;;;;-2.43;85.10;101184.97;1829451;76;27902;-67
2020/12/04 05:23:15;;;;;;;5.47;3.60;;;;;;;-2.45;85.08;101200.06;1811919;79;20983;-67
2020/12/04 05:25:48;;;;;;;2.80;2.40;;;;;;;-2.42;85.03;101202.60;1815123;79;21006;-67
2020/12/04 05:28:22;;;;;;;6.27;3.33;;;;;;;-2.43;84.94;101188.94;1767320;81;20981;-67
2020/12/04 05:31:08;;;;;;;6.43;4.27;;;;;;;-2.39;84.90;101185.23;1845283;76;25059;-67
2020/12/04 05:33:37;;;;;;;7.70;3.90;;;;;;;-2.43;84.85;101188.94;1815191;78;21162;-67
2020/12/04 05:36:05;;;;;;;4.90;3.73;;;;;;;-2.45;84.80;101190.79;1815277;78;21355;-67
2020/12/04 05:38:33;;;;;;;4.23;2.77;;;;;;;-2.48;84.77;101191.75;1815092;77;21012;-68
2020/12/04 05:41:07;;;;;;;4.40;2.80;;;;;;;-2.49;84.73;101197.52;1815188;77;21043;-66
2020/12/04 05:43:38;;;;;;;3.63;2.17;;;;;;;-2.50;84.71;101206.41;1815165;79;20933;-67
2020/12/04 05:46:19;;;;;;;3.17;2.60;;;;;;;-2.48;84.70;101203.67;1815179;79;20944;-67
2020/12/04 05:49:09;;;;;;;3.20;2.83;;;;;;;-2.48;84.70;101207.65;1815235;79;21369;-67
2020/12/04 05:51:39;;;;;;;5.10;2.80;;;;;;;-2.47;84.68;101210.72;1815257;79;21487;-67
2020/12/04 05:54:10;;;;;;;5.83;2.77;;;;;;;-2.45;84.69;101217.28;1815114;78;21039;-67
2020/12/04 05:56:39;;;;;;;7.37;4.17;;;;;;;-2.44;84.67;101221.63;1794764;78;20981;-67
2020/12/04 05:59:13;;;;;;;5.57;3.80;;;;;;;-2.44;84.64;101226.50;1783186;80;20922;-67
2020/12/04 06:01:45;;;;;;;9.73;3.70;;;;;;;-2.43;84.59;101233.50;1783007;80;21358;-68
2020/12/04 06:04:18;;;;;;;4.90;3.40;;;;;;;-2.42;84.58;101229.09;1783054;80;21032;-66
2020/12/04 06:06:46;;;;;;;7.03;3.70;;;;;;;-2.40;84.55;101240.02;1732811;82;21008;-67
2020/12/04 06:09:15;;;;;;;3.10;2.67;;;;;;;-2.36;84.59;101239.44;1732741;82;20982;-66
2020/12/04 06:11:46;;;;;;;2.80;2.17;;;;;;;-2.33;84.56;101236.20;1708789;82;21022;-66
2020/12/04 06:14:25;;;;;;;3.30;2.67;;;;;;;-2.30;84.57;101237.42;1732671;82;21203;-66
2020/12/04 06:17:10;;;;;;;4.83;2.70;;;;;;;-2.25;84.52;101243.84;1732822;82;21002;-67
2020/12/04 06:19:40;;;;;;;5.97;2.87;;;;;;;-2.24;84.40;101243.41;1732807;82;21105;-66
2020/12/04 06:22:18;;;;;;;5.33;2.97;;;;;;;-2.24;84.30;101242.94;1732752;82;20939;-66
2020/12/04 06:25:01;;;;;;;2.93;2.20;;;;;;;-2.24;84.18;101244.73;1732786;82;21042;-67
2020/12/04 06:27:44;;;;;;;3.10;2.63;;;;;;;-2.22;84.14;101241.09;1717897;83;21660;-68
2020/12/04 06:30:20;;;;;;;4.93;3.20;;;;;;;-2.13;84.07;101238.54;1889925;76;23331;-67
2020/12/04 06:32:50;;;;;;;8.50;3.67;;;;;;;-2.13;84.01;101246.48;1860694;76;20919;-68
2020/12/04 06:35:41;;;;;;;9.33;4.07;;;;;;;-2.09;83.93;101244.11;1860868;77;21190;-69
2020/12/04 06:38:39;;;;;;;3.30;2.13;;;;;;;-2.06;83.78;101255.06;1779605;80;21021;-68
2020/12/04 06:41:44;;;;;;;4.57;3.33;;;;;;;-2.05;83.64;101257.66;1779504;80;21048;-67
2020/12/04 06:44:22;;;;;;;3.30;3.00;;;;;;;-2.05;83.46;101240.44;1779417;80;21065;-66
2020/12/04 06:46:55;;;;;;;5.17;3.57;;;;;;;-2.06;83.29;101243.14;1779616;80;20902;-66
2020/12/04 06:49:39;;;;;;;6.47;4.10;;;;;;;-2.04;83.16;101240.81;1889804;76;24057;-65
2020/12/04 06:52:16;;;;;;;2.57;2.00;;;;;;;-2.07;83.10;101240.96;1860909;77;21409;-66
2020/12/04 06:54:51;;;;;;;4.17;3.17;;;;;;;-2.03;83.10;101250.98;1860826;77;21409;-66
2020/12/04 06:57:22;;;;;;;5.10;3.63;;;;;;;-1.96;83.07;101245.84;1832392;77;21025;-66
2020/12/04 06:59:50;;;;;;;6.17;3.53;;;;;;;-1.93;82.99;101237.30;1736865;81;21683;-65
2020/12/04 07:02:22;;;;;;;5.27;3.80;;;;;;;-1.86;82.89;101238.36;1712923;82;21710;-65
2020/12/04 07:04:53;;;;;;;4.15;3.17;;;;;;;-1.82;82.80;101247.47;1739674;82;20912;-66
2020/12/04 07:07:28;;;;;;;2.93;2.50;;;;;;;-1.72;82.64;101249.27;1845018;76;24517;-67
2020/12/04 07:10:00;;;;;;;5.47;2.83;;;;;;;-1.74;82.49;101245.81;1814096;79;20992;-67
2020/12/04 07:12:48;;;;;;;8.00;3.37;;;;;;;-1.69;82.43;101258.42;1810333;77;21391;-68
2020/12/04 07:15:29;;;;;;;4.30;2.80;;;;;;;-1.64;82.34;101255.13;1748280;81;21605;-69
2020/12/04 07:18:05;;;;;;;3.83;3.10;;;;;;;-1.53;82.25;101255.53;1851536;76;25061;-68
2020/12/04 07:20:37;;;;;;;5.27;3.07;;;;;;;-1.52;82.18;101253.77;1812937;77;20966;-68
2020/12/04 07:23:07;;;;;;;4.80;3.27;;;;;;;-1.45;82.09;101257.89;1812838;77;21359;-68
2020/12/04 07:25:36;;;;;;;5.17;3.57;;;;;;;-1.39;81.96;101258.94;1804856;77;20989;-67
2020/12/04 07:28:04;;;;;;;5.97;3.20;;;;;;;-1.39;81.66;101270.87;1751375;80;21005;-65
2020/12/04 07:30:32;;;;;;;2.83;2.47;;;;;;;-1.40;81.29;101262.55;1732824;81;20981;-67
2020/12/04 07:33:01;;;;;;;2.93;2.50;;;;;;;-1.44;81.01;101262.25;1758426;79;20996;-67
2020/12/04 07:35:29;;;;;;;5.50;2.77;;;;;;;-1.46;80.76;101265.44;1777658;79;21205;-67
2020/12/04 07:37:58;;;;;;;5.17;3.40;;;;;;;-1.48;80.51;101265.11;1775769;79;21001;-68
2020/12/04 07:40:26;;;;;;;7.47;4.43;;;;;;;-1.46;80.49;101260.13;1769968;79;21013;-67
2020/12/04 07:42:55;;;;;;;7.77;3.57;;;;;;;-1.40;80.33;101262.98;1736335;82;21544;-68
2020/12/04 07:45:23;;;;;;;9.17;4.10;;;;;;;-1.38;80.20;101262.01;1745090;81;20997;-67
2020/12/04 07:47:51;;;;;;;4.87;3.43;;;;;;;-1.32;80.10;101259.55;1770779;79;21208;-68
2020/12/04 07:50:21;;;;;;;6.00;4.30;;;;;;;-1.19;80.05;101268.73;1734684;81;21569;-66
2020/12/04 07:52:50;;;;;;;7.70;2.70;;;;;;;-1.05;79.88;101264.13;1785101;79;21036;-67
2020/12/04 07:55:20;;;;;;;6.80;2.60;;;;;;;-0.93;79.65;101261.89;1736790;81;21056;-66
2020/12/04 07:58:08;;;;;;;5.73;3.87;;;;;;;-0.91;79.21;101260.87;1771941;79;21613;-67
2020/12/04 08:00:36;;;;;;;4.63;3.77;;;;;;;-0.88;78.95;101247.95;1769253;79;22276;-68
2020/12/04 08:03:13;;;;;;;4.93;3.30;;;;;;;-0.83;78.73;101245.48;1743597;80;21706;-66
2020/12/04 08:05:41;;;;;;;7.60;3.90;;;;;;;-0.73;78.59;101243.25;1731470;82;21129;-68
2020/12/04 08:08:10;;;;;;;4.30;2.97;;;;;;;-0.60;78.37;101238.27;1759469;79;21138;-69
2020/12/04 08:10:38;;;;;;;11.10;4.63;;;;;;;-0.45;78.29;101242.86;1753722;81;21165;-69
2020/12/04 08:13:06;;;;;;;5.57;2.77;;;;;;;-0.31;78.10;101237.38;1794639;79;22202;-71
2020/12/04 08:15:35;;;;;;;5.17;2.97;;;;;;;-0.16;77.63;101239.77;1737440;80;21184;-72
2020/12/04 08:18:04;;;;;;;5.93;2.43;;;;;;;-0.05;77.42;101240.14;1756663;81;21638;-71
2020/12/04 08:20:33;;;;;;;3.33;2.37;;;;;;;0.08;77.17;101234.61;1752787;81;21082;-73
2020/12/04 08:23:02;;;;;;;6.23;3.20;;;;;;;0.15;76.54;101226.72;1750648;82;20955;-73
2020/12/04 08:25:33;;;;;;;3.83;2.53;;;;;;;0.22;76.13;101237.93;1753721;80;22525;-78
2020/12/04 08:28:01;;;;;;;13.20;4.83;;;;;;;0.27;75.71;101242.56;1758095;80;20975;-74
2020/12/04 08:30:31;;;;;;;8.13;3.80;;;;;;;0.35;75.41;101240.84;1750685;80;21029;-73
2020/12/04 08:33:03;;;;;;;7.03;3.50;;;;;;;0.48;75.30;101236.64;1755716;80;21088;-73
2020/12/04 08:35:39;;;;;;;9.93;4.33;;;;;;;0.56;74.67;101232.25;1755918;80;21036;-69
2020/12/04 08:38:12;;;;;;;4.73;3.73;;;;;;;0.61;74.23;101232.03;1754074;80;21281;-68
2020/12/04 08:40:42;;;;;;;8.13;3.55;;;;;;;0.67;73.98;101226.37;1758788;80;28845;-69
2020/12/04 08:43:15;;;;;;;4.87;2.63;;;;;;;0.74;73.58;101226.45;1734672;80;21601;-69
2020/12/04 08:45:44;;;;;;;7.87;3.90;;;;;;;0.78;73.45;101226.71;1745412;80;21061;-70
2020/12/04 08:48:17;;;;;;;5.80;3.30;;;;;;;0.91;73.36;101225.12;1754875;80;21072;-69
2020/12/04 08:50:56;;;;;;;6.75;3.72;;;;;;;0.99;73.02;101227.84;1758539;80;21357;-73
2020/12/04 08:53:25;;;;;;;7.37;2.70;;;;;;;1.11;73.00;101235.20;1737767;82;20965;-73
2020/12/04 08:55:56;;;;;;;8.67;3.33;;;;;;;1.26;72.76;101236.20;1756401;79;20934;-72
2020/12/04 08:58:25;;;;;;;9.83;3.87;;;;;;;1.38;72.51;101232.88;1705627;82;21179;-72
2020/12/04 09:00:55;;;;;;;4.50;2.80;;;;;;;1.49;71.93;101238.48;1702864;82;21206;-73
2020/12/04 09:03:26;;;;;;;6.03;3.63;;;;;;;1.58;71.71;101230.94;1702544;83;21200;-69
2020/12/04 09:05:55;;;;;;;10.13;3.90;;;;;;;1.73;71.71;101226.07;1675816;85;21597;-68
2020/12/04 09:08:23;;;;;;;12.30;4.47;;;;;;;1.86;71.04;101226.23;1678107;85;21156;-67
2020/12/04 09:10:51;;;;;;;8.00;3.63;;;;;;;1.82;70.10;101218.03;1684199;84;21073;-69
2020/12/04 09:13:19;;;;;;;9.40;3.77;;;;;;;1.79;69.91;101229.75;1678854;84;21012;-67
2020/12/04 09:15:49;;;;;;;5.43;3.37;;;;;;;1.83;69.95;101227.28;1678303;85;22518;-70
2020/12/04 09:18:17;;;;;;;7.30;3.50;;;;;;;1.96;69.98;101221.27;1686326;84;21085;-69
2020/12/04 09:20:45;;;;;;;9.90;5.07;;;;;;;2.05;69.66;101219.41;1674869;84;21087;-68
2020/12/04 09:23:13;;;;;;;11.73;4.43;;;;;;;2.14;69.31;101212.20;1679949;84;21236;-68
2020/12/04 09:25:40;;;;;;;5.90;3.60;;;;;;;2.18;69.08;101209.77;1671241;84;21081;-68
2020/12/04 09:28:12;;;;;;;4.63;2.90;;;;;;;2.23;68.78;101208.14;1680828;84;21454;-69
2020/12/04 09:30:40;;;;;;;9.77;4.30;;;;;;;2.27;68.58;101206.55;1699645;84;21006;-69
2020/12/04 09:33:08;;;;;;;10.40;4.47;;;;;;;2.26;68.10;101198.63;1701161;84;21024;-68
2020/12/04 09:35:37;;;;;;;8.30;4.43;;;;;;;2.25;67.99;101200.45;1702415;83;21261;-67
2020/12/04 09:38:05;;;;;;;5.23;3.50;;;;;;;2.32;67.98;101202.74;1702750;84;21111;-73
2020/12/04 09:40:33;;;;;;;6.00;3.50;;;;;;;2.34;67.85;101195.05;1701789;84;21282;-70
2020/12/04 09:43:01;;;;;;;6.93;3.77;;;;;;;2.40;67.73;101184.00;1703427;84;21108;-68
2020/12/04 09:45:29;;;;;;;7.70;4.07;;;;;;;2.47;67.64;101190.69;1702025;84;21184;-66
2020/12/04 09:47:58;;;;;;;10.33;4.40;;;;;;;2.52;67.33;101192.25;1701652;84;21102;-68
2020/12/04 09:50:25;;;;;;;12.83;4.23;;;;;;;2.59;67.41;101185.11;1700494;84;20970;-68
2020/12/04 09:52:53;;;;;;;12.43;3.90;;;;;;;2.68;67.09;101186.37;1661708;84;21603;-72
2020/12/04 09:55:23;;;;;;;7.97;3.57;;;;;;;2.68;66.66;101190.86;1712401;82;21033;-72
2020/12/04 09:57:50;;;;;;;12.00;4.93;;;;;;;2.71;66.57;101187.98;1764202;81;21159;-72
2020/12/04 10:00:18;;;;;;;8.63;4.07;;;;;;;2.79;66.27;101190.58;1755428;81;21018;-71
2020/12/04 10:02:46;;;;;;;7.33;4.17;;;;;;;2.90;66.21;101177.91;1762753;81;21443;-71
2020/12/04 10:05:14;;;;;;;20.67;8.73;;;;;;;3.05;66.28;101180.13;1764590;81;22267;-71
2020/12/04 10:07:42;;;;;;;8.43;3.90;;;;;;;3.17;65.79;101177.15;1763299;81;21056;-72
2020/12/04 10:10:09;;;;;;;12.83;4.63;;;;;;;3.16;65.29;101176.30;1746285;82;21713;-70
2020/12/04 10:12:38;;;;;;;9.27;4.37;;;;;;;3.16;64.97;101170.95;1758281;81;21017;-70
2020/12/04 10:15:05;;;;;;;11.33;4.67;;;;;;;3.14;64.98;101177.36;1758076;81;20997;-69
2020/12/04 10:17:34;;;;;;;8.53;4.17;;;;;;;3.12;65.02;101173.94;1746074;81;21210;-70
2020/12/04 10:20:02;;;;;;;11.47;4.63;;;;;;;3.11;64.93;101171.71;1776995;80;20998;-69
2020/12/04 10:22:31;;;;;;;10.57;4.53;;;;;;;3.09;64.82;101166.95;1746414;82;21069;-71
2020/12/04 10:24:59;;;;;;;8.67;4.37;;;;;;;3.08;64.78;101166.59;1746342;82;20994;-72
2020/12/04 10:27:26;;;;;;;10.83;3.70;;;;;;;3.08;64.77;101172.38;1746461;81;21058;-72
2020/12/04 10:29:56;;;;;;;8.10;3.77;;;;;;;3.08;64.57;101170.59;1746260;82;21036;-72
2020/12/04 10:32:24;;;;;;;8.10;4.17;;;;;;;2.99;64.12;101164.00;1728704;81;21032;-72
2020/12/04 10:34:51;;;;;;;18.33;5.20;;;;;;;2.93;64.46;101168.86;1736087;82;21016;-72
2020/12/04 10:37:19;;;;;;;13.47;5.87;;;;;;;3.00;64.85;101171.53;1738383;82;21003;-73
2020/12/04 10:39:47;;;;;;;9.73;4.50;;;;;;;3.05;64.58;101173.45;1770777;81;21143;-71
2020/12/04 10:42:15;;;;;;;11.77;4.77;;;;;;;3.06;64.62;101171.14;1755028;81;21159;-74
2020/12/04 10:44:42;;;;;;;10.77;3.80;;;;;;;3.08;64.70;101161.23;1733653;82;22389;-73
2020/12/04 10:47:10;;;;;;;9.27;4.30;;;;;;;3.16;64.79;101162.94;1764132;81;21080;-73
2020/12/04 10:49:41;;;;;;;14.17;5.37;;;;;;;3.23;64.74;101162.93;1734311;82;20993;-72
2020/12/04 10:52:12;;;;;;;13.77;4.10;;;;;;;3.33;64.67;101157.88;1724949;81;20930;-75
2020/12/04 10:54:40;;;;;;;10.07;4.30;;;;;;;3.45;64.61;101165.58;1753596;81;22100;-74
2020/12/04 10:57:08;;;;;;;10.77;4.47;;;;;;;3.50;64.38;101166.15;1762499;81;21025;-71
2020/12/04 10:59:36;;;;;;;13.73;4.20;;;;;;;3.49;63.63;101160.89;1740747;81;21163;-68
2020/12/04 11:02:17;;;;;;;11.43;5.20;;;;;;;3.39;63.52;101160.64;1744337;81;21059;-70
2020/12/04 11:07:25;;;;;;;14.53;5.50;;;;;;;3.32;63.77;101163.32;1745297;81;22991;-70
2020/12/04 11:09:54;;;;;;;13.97;5.77;;;;;;;3.30;63.63;101152.72;1737238;81;20984;-71
2020/12/04 11:12:22;;;;;;;12.20;4.63;;;;;;;3.24;63.62;101150.45;1734217;82;20941;-69
2020/12/04 11:14:50;;;;;;;12.50;4.47;;;;;;;3.21;63.89;101158.65;1777073;80;20974;-70
2020/12/04 11:17:17;;;;;;;11.30;4.57;;;;;;;3.23;63.90;101160.26;1739842;80;21577;-71
2020/12/04 11:19:47;;;;;;;13.10;5.33;;;;;;;3.21;63.91;101161.33;1753917;81;21099;-70
2020/12/04 11:22:15;;;;;;;7.43;4.60;;;;;;;3.23;64.10;101170.09;1734711;82;21491;-70
2020/12/04 11:24:43;;;;;;;11.33;4.20;;;;;;;3.24;63.89;101158.47;1742484;80;21000;-72
2020/12/04 11:27:10;;;;;;;12.53;5.20;;;;;;;3.22;64.10;101162.57;1732937;82;21562;-72
2020/12/04 11:29:40;;;;;;;9.90;4.37;;;;;;;3.27;64.20;101162.75;1750894;81;21036;-73
2020/12/04 11:32:08;;;;;;;8.43;4.00;;;;;;;3.26;64.11;101173.92;1746550;81;21883;-69
2020/12/04 11:34:36;;;;;;;11.97;4.53;;;;;;;3.23;63.98;101162.93;1761535;81;21634;-69
2020/12/04 11:37:04;;;;;;;14.17;5.80;;;;;;;3.09;63.63;101162.94;1760257;81;20934;-69
2020/12/04 11:39:34;;;;;;;12.13;5.47;;;;;;;2.84;63.46;101168.45;1749002;81;21549;-70
2020/12/04 11:42:02;;;;;;;12.07;5.07;;;;;;;2.64;63.82;101178.17;1745803;81;21122;-71
2020/12/04 11:44:30;;;;;;;9.80;4.53;;;;;;;2.41;64.14;101185.73;1722348;82;21365;-69